Krymsk — A8CE4 — position and weather

sailwx.info

Track history (hours):
 
Tides and Currents Weather Stations Pressure Air Temp Water Temp Dewpoint Dewpoint Depression Visibility Wind Speed Wind Dir Waves Ship Positions

Krymsk

Last reported at 2014-Jun-27 00:32 UTC. Time now 2014-Sep-22 22:23 UTC.
Position N 29°27' W 094°50'.
Warning: this ship's position is months out of date.

Length 250 m; draft 8.6 m.

Type: Tanker. MMSI: 636011914.

Date/timePositionNaut miles runAvg speedWind from/ knotsBaromVisibWave heightAir tempDewpointWater temp
2014-Jun-27 00:32N 29°27' W 094°50'1212.0
2014-Jun-26 23:33N 29°37' W 094°57'9 8.6
2014-Jun-26 22:33N 29°44' W 095°03'4 0.3
2014-Jun-26 09:20N 29°44' W 095°08'0 0.0
2014-Jun-26 07:31N 29°44' W 095°08'0 0.0
2014-Jun-26 06:13N 29°44' W 095°08'0 0.0
2014-Jun-26 05:13N 29°44' W 095°08'0 0.0
2014-Jun-26 04:25N 29°44' W 095°08'0 0.0
2014-Jun-25 06:07N 29°44' W 095°08'0 0.0
2014-Jun-25 05:31N 29°44' W 095°08'0 0.0
2014-Jun-25 04:31N 29°44' W 095°08'0 0.0
2014-Jun-25 03:31N 29°44' W 095°08'0 0.0
2014-Jun-25 00:33N 29°44' W 095°08'3 3.4
2014-Jun-24 23:33N 29°45' W 095°04'6 6.0
2014-Jun-24 22:33N 29°41' W 094°59'10 9.8
2014-Jun-24 21:33N 29°32' W 094°54'1010.4
2014-Jun-24 20:33N 29°23' W 094°48'  
Track history (hours):
 
Tides and Currents Weather Stations Pressure Air Temp Water Temp Dewpoint Dewpoint Depression Visibility Wind Speed Wind Dir Waves Ship Positions

Krymsk

Last reported at 2014-Jun-27 00:32 UTC. Time now 2014-Sep-22 22:23 UTC.
Position N 29°27' W 094°50'.
Warning: this ship's position is months out of date.

Length 250 m; draft 8.6 m.

Type: Tanker. MMSI: 636011914.

Date/timePositionNaut miles runAvg speedWind from/ knotsBaromVisibWave heightAir tempDewpointWater temp
2014-Jun-27 00:32N 29°27' W 094°50'1212.0
2014-Jun-26 23:33N 29°37' W 094°57'9 8.6
2014-Jun-26 22:33N 29°44' W 095°03'4 0.3
2014-Jun-26 09:20N 29°44' W 095°08'0 0.0
2014-Jun-26 07:31N 29°44' W 095°08'0 0.0
2014-Jun-26 06:13N 29°44' W 095°08'0 0.0
2014-Jun-26 05:13N 29°44' W 095°08'0 0.0
2014-Jun-26 04:25N 29°44' W 095°08'0 0.0
2014-Jun-25 06:07N 29°44' W 095°08'0 0.0
2014-Jun-25 05:31N 29°44' W 095°08'0 0.0
2014-Jun-25 04:31N 29°44' W 095°08'0 0.0
2014-Jun-25 03:31N 29°44' W 095°08'0 0.0
2014-Jun-25 00:33N 29°44' W 095°08'3 3.4
2014-Jun-24 23:33N 29°45' W 095°04'6 6.0
2014-Jun-24 22:33N 29°41' W 094°59'10 9.8
2014-Jun-24 21:33N 29°32' W 094°54'1010.4
2014-Jun-24 20:33N 29°23' W 094°48'  

Dump ship's entire track history